Time;durP1;ratioP1;P1;durP2;ratioP2;P2;SDS_P1;SDS_P2;PMS_P1;PMS_P2;Temp;Humidity;BMP_temperature;BMP_pressure;BME280_temperature;BME280_humidity;BME280_pressure;Samples;Min_cycle;Max_cycle;Signal;HPM_P1;HPM_P2
2022/05/13 00:02:08;;;;;;;14.30;7.00;;;;;;;;;;5029462;28;20049;-60
2022/05/13 00:04:34;;;;;;;11.23;5.37;;;;;;;;;;5045340;28;20041;-60
2022/05/13 00:07:01;;;;;;;14.03;5.50;;;;;;;;;;5036058;28;20056;-61
2022/05/13 00:09:56;;;;;;;9.10;5.17;;;;;;;;;;5030650;28;20450;-60
2022/05/13 00:12:13;;;;;;;13.73;5.43;;;;;;;;;;5047774;28;20049;-60
2022/05/13 00:14:41;;;;;;;9.77;5.17;;;;;;;;;;5050529;28;20048;-60
2022/05/13 00:17:07;;;;;;;11.30;4.77;;;;;;;;;;5034303;28;20050;-60
2022/05/13 00:19:34;;;;;;;13.20;6.23;;;;;;;;;;5041338;28;20454;-61
2022/05/13 00:22:00;;;;;;;13.73;4.00;;;;;;;;;;5047667;28;20052;-60
2022/05/13 00:24:26;;;;;;;12.43;4.90;;;;;;;;;;5050384;28;20080;-60
2022/05/13 00:26:52;;;;;;;9.40;3.87;;;;;;;;;;5048927;28;20045;-60
2022/05/13 00:29:18;;;;;;;9.37;3.87;;;;;;;;;;5048808;28;20053;-61
2022/05/13 00:31:44;;;;;;;12.43;3.60;;;;;;;;;;5048949;28;20060;-60
2022/05/13 00:34:10;;;;;;;6.80;3.43;;;;;;;;;;5049018;28;20110;-60
2022/05/13 00:36:37;;;;;;;9.73;3.30;;;;;;;;;;5050285;28;20144;-60
2022/05/13 00:39:04;;;;;;;9.83;3.00;;;;;;;;;;5043609;28;20557;-60
2022/05/13 00:41:31;;;;;;;10.20;2.97;;;;;;;;;;5049788;28;20127;-60
2022/05/13 00:43:57;;;;;;;6.77;2.93;;;;;;;;;;5047860;28;20472;-60
2022/05/13 00:46:24;;;;;;;9.10;2.73;;;;;;;;;;5031982;28;20045;-60
2022/05/13 00:48:51;;;;;;;12.23;3.47;;;;;;;;;;5030047;28;20049;-60
2022/05/13 00:51:18;;;;;;;8.23;2.70;;;;;;;;;;5045015;28;20040;-60
2022/05/13 00:53:46;;;;;;;9.03;3.27;;;;;;;;;;5049163;28;20499;-60
2022/05/13 00:56:12;;;;;;;7.20;3.73;;;;;;;;;;5046717;28;20501;-61
2022/05/13 00:58:39;;;;;;;6.10;2.70;;;;;;;;;;5037414;28;20723;-61
2022/05/13 01:01:05;;;;;;;10.17;3.07;;;;;;;;;;5029709;28;20049;-60
2022/05/13 01:03:33;;;;;;;9.97;2.60;;;;;;;;;;5047941;28;20045;-60
2022/05/13 01:06:01;;;;;;;6.07;2.30;;;;;;;;;;5048691;28;20064;-60
2022/05/13 01:08:30;;;;;;;5.77;2.40;;;;;;;;;;5049572;28;20045;-61
2022/05/13 01:10:57;;;;;;;7.37;3.50;;;;;;;;;;5049392;28;20061;-60
2022/05/13 01:13:28;;;;;;;6.20;2.90;;;;;;;;;;5049168;28;20040;-60
2022/05/13 01:15:54;;;;;;;5.90;2.67;;;;;;;;;;5049230;28;20052;-60
2022/05/13 01:18:27;;;;;;;7.23;2.37;;;;;;;;;;5048778;28;20045;-60
2022/05/13 01:20:53;;;;;;;;;;;;;;;;;;5048273;28;20060;-60
2022/05/13 01:23:24;;;;;;;10.50;2.83;;;;;;;;;;5048068;28;19959;-61
2022/05/13 01:25:54;;;;;;;6.83;3.17;;;;;;;;;;5029405;28;20042;-60
2022/05/13 01:28:26;;;;;;;7.07;2.70;;;;;;;;;;5032448;28;20045;-60
2022/05/13 01:30:53;;;;;;;8.87;2.83;;;;;;;;;;5028688;28;20049;-60
2022/05/13 01:33:20;;;;;;;11.13;3.27;;;;;;;;;;5045033;28;20483;-60
2022/05/13 01:35:47;;;;;;;5.20;2.13;;;;;;;;;;5048808;28;20049;-60
2022/05/13 01:38:14;;;;;;;9.40;2.60;;;;;;;;;;5046699;28;20040;-61
2022/05/13 01:40:40;;;;;;;7.40;2.80;;;;;;;;;;5048842;28;20045;-60
2022/05/13 01:43:07;;;;;;;6.17;2.70;;;;;;;;;;5047776;28;20047;-60
2022/05/13 01:45:34;;;;;;;9.03;2.87;;;;;;;;;;5041474;28;20049;-61
2022/05/13 01:48:00;;;;;;;4.33;2.63;;;;;;;;;;5036454;28;20053;-61
2022/05/13 01:50:26;;;;;;;7.43;2.73;;;;;;;;;;5038889;28;20095;-61
2022/05/13 01:52:53;;;;;;;7.10;2.57;;;;;;;;;;5046935;28;20052;-60
2022/05/13 01:55:19;;;;;;;6.83;2.73;;;;;;;;;;5048977;28;20041;-61
2022/05/13 01:57:46;;;;;;;6.43;3.00;;;;;;;;;;5047872;28;20549;-61
2022/05/13 02:00:12;;;;;;;11.13;2.63;;;;;;;;;;5043594;28;20045;-60
2022/05/13 02:05:24;;;;;;;9.40;2.60;;;;;;;;;;5048411;28;20053;-61
2022/05/13 02:07:50;;;;;;;7.00;2.73;;;;;;;;;;5048121;28;20045;-61
2022/05/13 02:10:17;;;;;;;10.80;3.33;;;;;;;;;;5048765;28;20044;-61
2022/05/13 02:12:43;;;;;;;9.77;3.30;;;;;;;;;;5049525;28;20128;-61
2022/05/13 02:15:09;;;;;;;6.67;2.40;;;;;;;;;;5051551;28;20041;-60
2022/05/13 02:17:36;;;;;;;9.50;2.77;;;;;;;;;;5052491;28;20047;-60
2022/05/13 02:20:02;;;;;;;11.60;3.40;;;;;;;;;;5052057;28;20098;-61
2022/05/13 02:22:28;;;;;;;10.67;3.17;;;;;;;;;;5051979;28;20041;-61
2022/05/13 02:24:54;;;;;;;12.73;3.50;;;;;;;;;;5040963;28;20062;-60
2022/05/13 02:27:20;;;;;;;9.40;3.63;;;;;;;;;;5052592;28;20831;-60
2022/05/13 02:29:46;;;;;;;10.17;2.77;;;;;;;;;;5051070;28;20060;-61
2022/05/13 02:32:12;;;;;;;9.43;3.30;;;;;;;;;;5051135;28;20049;-61
2022/05/13 02:34:38;;;;;;;10.60;2.93;;;;;;;;;;5052373;28;20554;-60
2022/05/13 02:37:05;;;;;;;6.23;2.40;;;;;;;;;;5051548;28;20190;-61
2022/05/13 02:39:31;;;;;;;8.40;3.83;;;;;;;;;;5051885;28;20491;-61
2022/05/13 02:41:57;;;;;;;6.97;3.20;;;;;;;;;;5034929;28;20053;-61
2022/05/13 02:44:23;;;;;;;10.73;3.13;;;;;;;;;;5052684;28;20087;-61
2022/05/13 02:46:49;;;;;;;8.33;3.00;;;;;;;;;;5050380;28;20155;-61
2022/05/13 02:49:16;;;;;;;11.97;3.23;;;;;;;;;;5038401;28;20049;-61
2022/05/13 02:51:42;;;;;;;10.50;3.63;;;;;;;;;;5041754;28;20044;-61
2022/05/13 02:54:08;;;;;;;7.53;2.93;;;;;;;;;;5050979;28;20518;-60
2022/05/13 02:56:35;;;;;;;9.53;3.47;;;;;;;;;;5040809;28;20136;-61
2022/05/13 02:59:01;;;;;;;8.33;2.80;;;;;;;;;;5051283;28;20052;-61
2022/05/13 03:01:27;;;;;;;13.47;4.67;;;;;;;;;;5047390;28;20068;-60
2022/05/13 03:03:53;;;;;;;12.00;3.53;;;;;;;;;;5039887;28;20037;-60
2022/05/13 03:06:20;;;;;;;8.20;2.77;;;;;;;;;;5039614;28;20050;-61
2022/05/13 03:08:47;;;;;;;8.47;3.67;;;;;;;;;;5040310;28;20121;-61
2022/05/13 03:11:13;;;;;;;6.70;3.20;;;;;;;;;;5035913;28;20087;-61
2022/05/13 03:13:39;;;;;;;9.83;3.33;;;;;;;;;;5041889;28;20077;-61
2022/05/13 03:16:10;;;;;;;13.73;3.20;;;;;;;;;;5041790;28;20037;-61
2022/05/13 03:18:39;;;;;;;9.00;2.90;;;;;;;;;;5039979;28;20080;-61
2022/05/13 03:21:05;;;;;;;6.77;3.10;;;;;;;;;;5039024;28;20045;-61
2022/05/13 03:23:32;;;;;;;7.63;2.90;;;;;;;;;;5039434;28;20349;-61
2022/05/13 03:25:58;;;;;;;6.17;2.77;;;;;;;;;;5040496;28;20051;-61
2022/05/13 03:28:24;;;;;;;9.73;2.70;;;;;;;;;;5042213;28;20178;-61
2022/05/13 03:30:51;;;;;;;10.83;3.17;;;;;;;;;;5051278;28;20103;-61
2022/05/13 03:33:20;;;;;;;9.23;3.43;;;;;;;;;;5047433;28;20452;-60
2022/05/13 03:35:46;;;;;;;12.40;3.23;;;;;;;;;;5051490;28;20049;-61
2022/05/13 03:38:12;;;;;;;9.90;3.57;;;;;;;;;;5049643;28;20044;-61
2022/05/13 03:40:39;;;;;;;11.83;3.57;;;;;;;;;;5050793;28;20406;-61
2022/05/13 03:43:05;;;;;;;11.53;3.13;;;;;;;;;;5049962;28;20048;-61
2022/05/13 03:45:33;;;;;;;10.10;2.80;;;;;;;;;;5051858;28;20816;-61
2022/05/13 03:48:02;;;;;;;13.53;3.40;;;;;;;;;;5051041;28;20052;-60
2022/05/13 03:50:28;;;;;;;10.20;2.70;;;;;;;;;;5050049;28;20048;-61
2022/05/13 03:52:54;;;;;;;11.67;2.43;;;;;;;;;;5050010;28;20037;-61
2022/05/13 03:55:22;;;;;;;9.87;3.40;;;;;;;;;;5050946;28;20120;-61
2022/05/13 03:57:49;;;;;;;14.43;4.17;;;;;;;;;;5037641;28;20048;-61
2022/05/13 04:00:15;;;;;;;13.97;4.30;;;;;;;;;;5044850;28;21674;-61
2022/05/13 04:02:41;;;;;;;13.23;3.57;;;;;;;;;;5043454;28;20604;-61
2022/05/13 04:10:38;;;;;;;12.27;2.97;;;;;;;;;;5050613;28;20594;-61
2022/05/13 04:16:04;;;;;;;14.10;3.03;;;;;;;;;;5050420;28;20049;-61
2022/05/13 04:18:30;;;;;;;19.27;4.03;;;;;;;;;;5033142;28;20069;-61
2022/05/13 04:20:56;;;;;;;13.10;3.50;;;;;;;;;;5048302;28;20090;-61
2022/05/13 04:23:23;;;;;;;12.07;3.93;;;;;;;;;;5046854;28;20103;-61
2022/05/13 04:25:49;;;;;;;12.37;3.77;;;;;;;;;;5051147;28;20048;-61
2022/05/13 04:28:16;;;;;;;12.77;3.83;;;;;;;;;;5049734;28;20045;-61
2022/05/13 04:30:42;;;;;;;20.10;5.03;;;;;;;;;;5049893;28;20095;-61
2022/05/13 04:33:08;;;;;;;13.43;3.87;;;;;;;;;;5048690;28;20055;-61
2022/05/13 04:35:34;;;;;;;10.23;3.40;;;;;;;;;;5035245;28;20064;-61
2022/05/13 04:38:00;;;;;;;14.63;4.63;;;;;;;;;;5030732;28;20049;-60
2022/05/13 04:40:27;;;;;;;18.03;4.00;;;;;;;;;;5043970;28;20127;-61
2022/05/13 04:42:53;;;;;;;13.20;3.70;;;;;;;;;;5048917;28;20190;-61
2022/05/13 04:45:23;;;;;;;14.23;3.93;;;;;;;;;;5049595;28;20045;-61
2022/05/13 04:50:34;;;;;;;17.57;4.60;;;;;;;;;;5050642;28;20049;-61
2022/05/13 04:53:01;;;;;;;18.17;4.30;;;;;;;;;;5054483;28;20084;-61
2022/05/13 04:55:27;;;;;;;14.60;4.70;;;;;;;;;;5039207;28;20049;-61
2022/05/13 04:57:53;;;;;;;21.63;5.23;;;;;;;;;;5061205;28;20041;-61
2022/05/13 05:00:19;;;;;;;17.60;4.93;;;;;;;;;;5045459;28;20048;-61
2022/05/13 05:02:45;;;;;;;15.57;5.60;;;;;;;;;;5040452;28;20439;-61
2022/05/13 05:05:11;;;;;;;13.43;5.00;;;;;;;;;;5047521;28;20483;-61
2022/05/13 05:07:37;;;;;;;23.10;5.17;;;;;;;;;;5048567;28;20067;-61
2022/05/13 05:10:04;;;;;;;20.03;5.30;;;;;;;;;;5049206;28;20099;-61
2022/05/13 05:12:30;;;;;;;13.83;5.40;;;;;;;;;;5047323;28;20410;-61
2022/05/13 05:14:58;;;;;;;21.97;5.50;;;;;;;;;;5048349;28;20871;-61
2022/05/13 05:17:24;;;;;;;18.50;5.23;;;;;;;;;;5033622;28;20075;-61
2022/05/13 05:19:50;;;;;;;19.43;5.40;;;;;;;;;;5028812;28;20081;-61
2022/05/13 05:22:16;;;;;;;21.80;5.60;;;;;;;;;;5038660;28;20091;-61
2022/05/13 05:24:41;;;;;;;19.50;6.30;;;;;;;;;;5044302;28;20047;-61
2022/05/13 05:27:10;;;;;;;21.03;5.93;;;;;;;;;;5032652;28;20044;-61
2022/05/13 05:29:36;;;;;;;24.27;6.90;;;;;;;;;;5041494;28;20070;-62
2022/05/13 05:32:03;;;;;;;17.73;5.47;;;;;;;;;;5036125;28;20266;-61
2022/05/13 05:34:29;;;;;;;17.30;5.67;;;;;;;;;;5042544;28;20127;-61
2022/05/13 05:36:55;;;;;;;16.70;5.30;;;;;;;;;;5068803;28;20482;-61
2022/05/13 05:39:21;;;;;;;20.03;6.20;;;;;;;;;;5045791;28;20410;-61
2022/05/13 05:41:47;;;;;;;24.27;6.60;;;;;;;;;;5047787;28;20094;-61
2022/05/13 05:44:13;;;;;;;18.97;5.40;;;;;;;;;;5045286;28;20041;-61
2022/05/13 05:46:39;;;;;;;15.27;4.63;;;;;;;;;;5046347;28;20049;-61
2022/05/13 05:49:05;;;;;;;16.10;4.93;;;;;;;;;;5047532;28;20171;-61
2022/05/13 05:51:31;;;;;;;14.23;4.33;;;;;;;;;;5048116;28;20399;-61
2022/05/13 05:59:27;;;;;;;18.77;3.97;;;;;;;;;;5046760;28;20095;-61
2022/05/13 06:01:53;;;;;;;13.57;4.30;;;;;;;;;;5047464;28;20109;-61
2022/05/13 06:04:20;;;;;;;18.17;4.50;;;;;;;;;;5037474;28;20037;-61
2022/05/13 06:06:46;;;;;;;17.10;4.23;;;;;;;;;;5048140;28;20058;-61
2022/05/13 06:09:12;;;;;;;13.47;4.80;;;;;;;;;;5047745;28;20048;-62
2022/05/13 06:11:38;;;;;;;18.97;4.43;;;;;;;;;;5041264;28;20579;-61
2022/05/13 06:14:04;;;;;;;14.33;4.17;;;;;;;;;;5043927;28;20068;-61
2022/05/13 06:16:31;;;;;;;18.73;3.97;;;;;;;;;;5048106;28;20475;-62
2022/05/13 06:19:01;;;;;;;15.77;3.93;;;;;;;;;;5045943;28;20049;-61
2022/05/13 06:21:34;;;;;;;13.47;3.60;;;;;;;;;;5045524;28;20041;-61
2022/05/13 06:24:00;;;;;;;12.68;3.65;;;;;;;;;;5035771;28;20094;-61
2022/05/13 06:26:26;;;;;;;15.97;3.43;;;;;;;;;;5047854;28;20037;-61
2022/05/13 06:28:52;;;;;;;10.47;3.63;;;;;;;;;;5047692;28;20545;-62
2022/05/13 06:31:19;;;;;;;14.70;3.70;;;;;;;;;;5047901;28;20075;-61
2022/05/13 06:33:46;;;;;;;14.20;3.07;;;;;;;;;;5047318;28;20048;-61
2022/05/13 06:36:12;;;;;;;18.57;4.60;;;;;;;;;;5047548;28;20044;-61
2022/05/13 06:38:38;;;;;;;10.93;3.37;;;;;;;;;;5046576;28;20079;-62
2022/05/13 06:41:04;;;;;;;7.17;3.00;;;;;;;;;;5046647;28;20043;-61
2022/05/13 06:43:30;;;;;;;7.70;3.07;;;;;;;;;;5046818;28;20037;-61
2022/05/13 06:45:56;;;;;;;15.93;4.23;;;;;;;;;;5045926;28;20556;-61
2022/05/13 06:48:22;;;;;;;12.67;3.17;;;;;;;;;;5047603;28;20585;-61
2022/05/13 06:50:48;;;;;;;15.10;3.13;;;;;;;;;;5041996;28;20474;-61
2022/05/13 06:53:18;;;;;;;11.53;2.70;;;;;;;;;;5041820;28;20068;-61
2022/05/13 06:55:44;;;;;;;10.57;2.43;;;;;;;;;;5047403;28;20045;-61
2022/05/13 06:58:11;;;;;;;9.73;2.40;;;;;;;;;;5046456;28;20076;-61
2022/05/13 07:00:37;;;;;;;10.10;2.17;;;;;;;;;;5036037;28;20534;-61
2022/05/13 07:03:03;;;;;;;6.10;2.00;;;;;;;;;;5048742;28;20072;-61
2022/05/13 07:05:29;;;;;;;8.57;1.73;;;;;;;;;;5049931;28;20048;-61
2022/05/13 07:07:55;;;;;;;9.17;1.93;;;;;;;;;;5047224;28;20041;-61
2022/05/13 07:10:21;;;;;;;13.03;2.17;;;;;;;;;;5051199;28;20045;-61
2022/05/13 07:12:47;;;;;;;9.87;2.00;;;;;;;;;;5048908;28;20060;-61
2022/05/13 07:15:15;;;;;;;7.80;1.83;;;;;;;;;;5048988;28;20051;-61
2022/05/13 07:17:42;;;;;;;7.17;2.20;;;;;;;;;;5049035;28;20048;-61
2022/05/13 07:20:09;;;;;;;10.40;2.50;;;;;;;;;;5045857;28;20124;-61
2022/05/13 07:22:35;;;;;;;10.67;2.73;;;;;;;;;;5038980;28;20053;-61
2022/05/13 07:25:01;;;;;;;14.33;2.77;;;;;;;;;;5038996;28;20426;-61
2022/05/13 07:27:27;;;;;;;10.03;2.23;;;;;;;;;;5031286;28;20053;-61
2022/05/13 07:29:53;;;;;;;6.67;1.70;;;;;;;;;;5046673;28;20052;-61
2022/05/13 07:32:19;;;;;;;9.43;1.80;;;;;;;;;;5048732;28;20060;-61
2022/05/13 07:34:45;;;;;;;8.57;1.90;;;;;;;;;;5050092;28;20546;-61
2022/05/13 07:37:11;;;;;;;11.27;2.57;;;;;;;;;;5059121;28;20033;-61
2022/05/13 07:42:23;;;;;;;6.37;2.13;;;;;;;;;;5041494;28;20140;-61
2022/05/13 07:44:49;;;;;;;10.83;2.10;;;;;;;;;;5046451;28;20859;-61
2022/05/13 07:47:16;;;;;;;6.37;1.73;;;;;;;;;;5049587;28;20052;-61
2022/05/13 07:49:42;;;;;;;9.33;2.47;;;;;;;;;;5043490;28;20041;-61
2022/05/13 07:52:09;;;;;;;6.43;2.00;;;;;;;;;;5047423;28;20061;-61
2022/05/13 07:54:35;;;;;;;6.17;1.50;;;;;;;;;;5035912;28;20041;-61
2022/05/13 07:57:01;;;;;;;6.87;1.73;;;;;;;;;;5030523;28;20519;-61
2022/05/13 07:59:27;;;;;;;10.00;1.47;;;;;;;;;;5030466;28;20047;-61
2022/05/13 08:01:54;;;;;;;8.43;1.50;;;;;;;;;;5049492;28;20041;-61
2022/05/13 08:04:20;;;;;;;4.80;1.70;;;;;;;;;;5050058;28;20040;-61
2022/05/13 08:06:46;;;;;;;6.83;2.00;;;;;;;;;;5050256;28;20048;-61
2022/05/13 08:09:12;;;;;;;7.87;1.30;;;;;;;;;;5050287;28;20708;-61
2022/05/13 08:11:38;;;;;;;5.97;1.80;;;;;;;;;;5049698;28;20037;-61
2022/05/13 08:14:05;;;;;;;3.67;1.30;;;;;;;;;;5050186;28;20084;-61
2022/05/13 08:16:33;;;;;;;5.17;1.23;;;;;;;;;;5030764;28;20429;-61
2022/05/13 08:19:00;;;;;;;7.30;1.60;;;;;;;;;;5029642;28;20049;-61
2022/05/13 08:21:26;;;;;;;6.70;1.30;;;;;;;;;;5030094;28;20048;-61
2022/05/13 08:23:52;;;;;;;5.87;1.57;;;;;;;;;;5029776;28;20044;-61
2022/05/13 08:26:19;;;;;;;4.87;1.40;;;;;;;;;;5029340;28;20072;-61
2022/05/13 08:28:45;;;;;;;3.53;1.20;;;;;;;;;;5029197;28;20041;-61
2022/05/13 08:31:11;;;;;;;4.93;1.10;;;;;;;;;;5031195;28;20053;-61
2022/05/13 08:33:37;;;;;;;3.70;1.17;;;;;;;;;;5047905;28;20056;-61
2022/05/13 08:36:05;;;;;;;8.07;2.17;;;;;;;;;;5029851;28;20081;-61
2022/05/13 08:38:33;;;;;;;8.23;1.27;;;;;;;;;;5029869;28;20049;-61
2022/05/13 08:41:08;;;;;;;7.10;1.40;;;;;;;;;;5028889;28;20049;-61
2022/05/13 08:43:35;;;;;;;6.47;1.73;;;;;;;;;;5028117;28;20041;-61
2022/05/13 08:46:13;;;;;;;4.07;1.33;;;;;;;;;;5032400;28;20106;-61
2022/05/13 08:48:47;;;;;;;7.87;1.40;;;;;;;;;;5029349;28;20053;-61
2022/05/13 08:51:23;;;;;;;7.27;2.20;;;;;;;;;;5029441;28;20053;-61
2022/05/13 08:53:53;;;;;;;5.57;1.30;;;;;;;;;;5029309;28;20080;-61
2022/05/13 08:56:28;;;;;;;6.17;1.47;;;;;;;;;;5028902;28;20095;-61
2022/05/13 08:59:08;;;;;;;6.63;1.70;;;;;;;;;;5032384;28;20059;-61
2022/05/13 09:01:36;;;;;;;8.27;1.40;;;;;;;;;;5048989;28;20408;-61
2022/05/13 09:04:04;;;;;;;9.13;2.20;;;;;;;;;;5049257;28;20048;-61
2022/05/13 09:06:41;;;;;;;5.60;1.30;;;;;;;;;;5049341;28;20049;-61
2022/05/13 09:09:09;;;;;;;6.77;1.77;;;;;;;;;;5049154;28;20704;-61
2022/05/13 09:11:39;;;;;;;6.37;2.07;;;;;;;;;;5048308;28;20049;-61
2022/05/13 09:14:23;;;;;;;10.60;1.40;;;;;;;;;;5049047;28;20406;-61
2022/05/13 09:17:04;;;;;;;7.97;1.50;;;;;;;;;;5048787;28;20132;-61
2022/05/13 09:19:35;;;;;;;5.87;1.53;;;;;;;;;;5049370;28;20049;-61
2022/05/13 09:22:02;;;;;;;6.37;1.50;;;;;;;;;;5047758;28;20045;-61
2022/05/13 09:24:28;;;;;;;5.33;1.33;;;;;;;;;;5048916;28;20502;-61
2022/05/13 09:26:54;;;;;;;9.80;1.57;;;;;;;;;;5048394;28;20045;-61
2022/05/13 09:29:20;;;;;;;6.53;1.20;;;;;;;;;;5048141;28;20064;-61
2022/05/13 09:31:48;;;;;;;10.07;1.60;;;;;;;;;;5048692;28;20137;-61
2022/05/13 09:34:31;;;;;;;7.47;1.70;;;;;;;;;;5048819;28;20044;-61
2022/05/13 09:37:03;;;;;;;11.73;2.00;;;;;;;;;;5048253;28;20045;-61
2022/05/13 09:39:33;;;;;;;5.40;1.53;;;;;;;;;;5047667;28;20537;-61
2022/05/13 09:42:17;;;;;;;5.03;1.80;;;;;;;;;;5048411;28;20517;-61
2022/05/13 09:44:43;;;;;;;7.95;1.77;;;;;;;;;;5048764;28;20453;-61
2022/05/13 09:47:11;;;;;;;6.47;2.17;;;;;;;;;;5048119;28;20045;-61
2022/05/13 09:49:42;;;;;;;3.77;1.80;;;;;;;;;;5048533;28;20048;-61
2022/05/13 09:52:08;;;;;;;7.90;1.67;;;;;;;;;;5048418;28;20135;-61
2022/05/13 09:54:39;;;;;;;9.07;1.63;;;;;;;;;;5048294;28;20128;-61
2022/05/13 09:57:16;;;;;;;11.70;1.90;;;;;;;;;;5047534;28;20044;-62
2022/05/13 09:59:52;;;;;;;10.27;1.70;;;;;;;;;;5048270;28;20149;-61
2022/05/13 10:02:24;;;;;;;5.03;1.70;;;;;;;;;;5046657;28;20041;-61
2022/05/13 10:04:51;;;;;;;5.63;1.90;;;;;;;;;;5048278;28;20084;-61
2022/05/13 10:07:18;;;;;;;4.43;1.73;;;;;;;;;;5047638;28;20495;-61
2022/05/13 10:15:25;;;;;;;6.30;1.67;;;;;;;;;;5048221;28;20055;-61
2022/05/13 10:17:53;;;;;;;6.43;1.90;;;;;;;;;;5047822;28;20400;-61
2022/05/13 10:20:31;;;;;;;4.17;1.10;;;;;;;;;;5048294;28;20094;-61
2022/05/13 10:23:20;;;;;;;8.50;2.00;;;;;;;;;;5047392;28;20044;-61
2022/05/13 10:26:01;;;;;;;7.43;1.80;;;;;;;;;;5039648;28;20518;-61
2022/05/13 10:28:30;;;;;;;7.03;1.80;;;;;;;;;;5047811;28;20580;-61
2022/05/13 10:31:03;;;;;;;5.60;1.40;;;;;;;;;;5047583;28;20102;-61
2022/05/13 10:33:48;;;;;;;8.40;1.83;;;;;;;;;;5048612;28;20052;-61
2022/05/13 10:36:22;;;;;;;7.10;1.80;;;;;;;;;;5052051;28;20148;-61
2022/05/13 10:38:48;;;;;;;6.10;1.50;;;;;;;;;;5035476;28;20045;-61
2022/05/13 10:41:23;;;;;;;6.83;2.23;;;;;;;;;;5051194;28;20414;-61
2022/05/13 10:43:59;;;;;;;8.93;1.60;;;;;;;;;;5051665;28;20045;-61
2022/05/13 10:46:37;;;;;;;5.47;1.40;;;;;;;;;;5051591;28;20048;-61
2022/05/13 10:49:04;;;;;;;5.57;1.30;;;;;;;;;;5046243;28;20124;-61
2022/05/13 10:51:40;;;;;;;7.73;1.80;;;;;;;;;;5038137;28;20049;-61
2022/05/13 10:54:06;;;;;;;7.83;1.90;;;;;;;;;;5030463;28;20068;-61
2022/05/13 10:56:40;;;;;;;9.40;1.73;;;;;;;;;;5031866;28;20049;-61
2022/05/13 10:59:10;;;;;;;4.20;1.40;;;;;;;;;;5030458;28;20045;-61
2022/05/13 11:01:39;;;;;;;7.13;1.60;;;;;;;;;;5031593;28;20045;-61
2022/05/13 11:04:19;;;;;;;10.37;1.80;;;;;;;;;;5031688;28;20085;-61
2022/05/13 11:07:00;;;;;;;5.27;1.30;;;;;;;;;;5045469;28;20081;-62
2022/05/13 11:09:37;;;;;;;4.30;1.33;;;;;;;;;;5051178;28;20130;-61
2022/05/13 11:12:14;;;;;;;3.47;1.13;;;;;;;;;;5050816;28;20488;-61
2022/05/13 11:14:46;;;;;;;8.53;2.40;;;;;;;;;;5051269;28;20135;-61
2022/05/13 11:17:34;;;;;;;8.20;1.88;;;;;;;;;;5051444;28;20373;-61
2022/05/13 11:20:03;;;;;;;6.83;1.67;;;;;;;;;;5049263;28;20057;-61
2022/05/13 11:22:37;;;;;;;10.00;2.17;;;;;;;;;;5030943;28;20045;-61
2022/05/13 11:28:17;;;;;;;6.47;2.30;;;;;;;;;;5051523;28;20092;-61
2022/05/13 11:30:48;;;;;;;5.83;1.50;;;;;;;;;;5051140;28;20123;-61
2022/05/13 11:33:33;;;;;;;6.00;1.80;;;;;;;;;;5050401;28;20060;-61
2022/05/13 11:36:05;;;;;;;5.57;1.50;;;;;;;;;;5038676;28;20348;-61
2022/05/13 11:38:41;;;;;;;7.57;1.80;;;;;;;;;;5038445;28;20519;-61
2022/05/13 11:41:11;;;;;;;4.87;1.80;;;;;;;;;;5050434;28;20041;-61
2022/05/13 11:43:42;;;;;;;7.93;1.93;;;;;;;;;;5051140;28;20371;-61
2022/05/13 11:46:30;;;;;;;5.73;2.00;;;;;;;;;;5049424;28;20049;-61
2022/05/13 11:48:59;;;;;;;12.23;2.10;;;;;;;;;;5050078;28;20048;-61
2022/05/13 11:51:30;;;;;;;10.50;2.00;;;;;;;;;;5049942;28;20128;-61
2022/05/13 11:53:59;;;;;;;7.40;2.17;;;;;;;;;;5050524;28;20483;-61
2022/05/13 11:56:26;;;;;;;5.93;1.80;;;;;;;;;;5047736;28;20045;-61
2022/05/13 11:58:56;;;;;;;5.60;1.50;;;;;;;;;;5029036;28;20051;-61
2022/05/13 12:01:37;;;;;;;7.00;1.90;;;;;;;;;;5030062;28;20076;-61
2022/05/13 12:04:12;;;;;;;5.40;1.73;;;;;;;;;;5035596;28;20128;-61
2022/05/13 12:06:50;;;;;;;6.50;1.77;;;;;;;;;;5050345;28;20569;-61
2022/05/13 12:09:31;;;;;;;6.73;2.07;;;;;;;;;;5050477;28;20075;-61
2022/05/13 12:12:06;;;;;;;5.30;2.00;;;;;;;;;;5050407;28;20352;-61
2022/05/13 12:14:41;;;;;;;8.63;1.87;;;;;;;;;;5049545;28;20494;-61
2022/05/13 12:17:25;;;;;;;7.97;2.17;;;;;;;;;;5048955;28;20204;-61
2022/05/13 12:19:54;;;;;;;6.63;2.10;;;;;;;;;;5030178;28;20272;-61
2022/05/13 12:22:23;;;;;;;9.53;2.00;;;;;;;;;;5030000;28;20056;-61
2022/05/13 12:25:05;;;;;;;6.17;1.60;;;;;;;;;;5029715;28;20483;-61
2022/05/13 12:27:36;;;;;;;7.83;1.57;;;;;;;;;;5030053;28;20119;-61
2022/05/13 12:30:08;;;;;;;8.40;1.87;;;;;;;;;;5029902;28;20504;-61
2022/05/13 12:32:39;;;;;;;4.65;1.60;;;;;;;;;;5029787;28;20546;-62
2022/05/13 12:37:56;;;;;;;8.40;1.40;;;;;;;;;;5029306;28;20049;-61
2022/05/13 12:40:22;;;;;;;4.93;1.30;;;;;;;;;;5046518;28;20049;-61
2022/05/13 12:42:51;;;;;;;6.50;1.60;;;;;;;;;;5049622;28;20572;-62
2022/05/13 12:45:39;;;;;;;7.00;1.50;;;;;;;;;;5049570;28;20166;-61
2022/05/13 12:48:08;;;;;;;5.73;1.53;;;;;;;;;;5049623;28;20080;-61
2022/05/13 12:50:40;;;;;;;4.70;1.27;;;;;;;;;;5049170;28;20049;-61
2022/05/13 12:53:25;;;;;;;3.67;1.13;;;;;;;;;;5049369;28;20099;-62
2022/05/13 12:55:51;;;;;;;4.00;1.30;;;;;;;;;;5047130;28;20049;-61
2022/05/13 12:58:19;;;;;;;2.97;1.03;;;;;;;;;;5029132;28;20042;-62
2022/05/13 13:00:46;;;;;;;4.03;0.90;;;;;;;;;;5029416;28;20863;-61
2022/05/13 13:03:13;;;;;;;6.63;1.53;;;;;;;;;;5029225;28;20522;-61
2022/05/13 13:05:41;;;;;;;6.13;2.30;;;;;;;;;;5029536;28;20392;-62
2022/05/13 13:08:18;;;;;;;6.17;1.67;;;;;;;;;;5031435;28;20068;-61
2022/05/13 13:10:51;;;;;;;8.27;2.23;;;;;;;;;;5049447;28;20048;-61
2022/05/13 13:13:21;;;;;;;4.17;1.10;;;;;;;;;;5049073;28;20482;-61
2022/05/13 13:15:49;;;;;;;5.73;1.40;;;;;;;;;;5048702;28;20045;-62
2022/05/13 13:18:15;;;;;;;6.27;1.73;;;;;;;;;;5048848;28;20040;-62
2022/05/13 13:20:46;;;;;;;7.80;2.20;;;;;;;;;;5049402;28;20134;-61
2022/05/13 13:23:14;;;;;;;5.17;1.80;;;;;;;;;;5044068;28;20052;-62
2022/05/13 13:25:44;;;;;;;5.93;1.50;;;;;;;;;;5028510;28;20465;-62
2022/05/13 13:28:20;;;;;;;6.70;1.70;;;;;;;;;;5027724;28;20045;-61
2022/05/13 13:30:52;;;;;;;6.20;1.80;;;;;;;;;;5029020;28;20053;-61
2022/05/13 13:33:18;;;;;;;6.32;1.52;;;;;;;;;;5029148;28;20053;-61
2022/05/13 13:35:45;;;;;;;5.50;1.30;;;;;;;;;;5028578;28;20041;-61
2022/05/13 13:38:16;;;;;;;7.65;1.58;;;;;;;;;;5035227;28;20048;-61
2022/05/13 13:40:46;;;;;;;7.97;1.92;;;;;;;;;;5048730;28;20091;-61
2022/05/13 13:43:15;;;;;;;4.47;1.52;;;;;;;;;;5048273;28;20140;-61
2022/05/13 13:45:43;;;;;;;6.07;1.98;;;;;;;;;;5048606;28;20155;-61
2022/05/13 13:48:11;;;;;;;4.73;1.70;;;;;;;;;;5048101;28;20045;-62
2022/05/13 13:50:45;;;;;;;8.73;2.00;;;;;;;;;;5047673;28;20044;-61
2022/05/13 13:53:11;;;;;;;7.65;2.05;;;;;;;;;;5048368;28;20053;-61
2022/05/13 13:55:39;;;;;;;9.13;2.30;;;;;;;;;;5048694;28;20045;-61
2022/05/13 13:58:23;;;;;;;7.23;2.00;;;;;;;;;;5048469;28;20124;-61
2022/05/13 14:00:51;;;;;;;9.50;2.00;;;;;;;;;;5048346;28;20132;-61
2022/05/13 14:03:25;;;;;;;5.70;1.80;;;;;;;;;;5047935;28;20156;-62
2022/05/13 14:05:54;;;;;;;8.70;1.93;;;;;;;;;;5042554;28;20139;-61
2022/05/13 14:08:20;;;;;;;5.10;1.60;;;;;;;;;;5030907;28;20652;-61
2022/05/13 14:10:51;;;;;;;11.13;2.77;;;;;;;;;;5034960;28;20064;-61
2022/05/13 14:13:19;;;;;;;7.20;1.90;;;;;;;;;;5035184;28;20118;-61
2022/05/13 14:15:46;;;;;;;5.77;1.50;;;;;;;;;;5035075;28;20107;-61
2022/05/13 14:18:17;;;;;;;7.70;1.50;;;;;;;;;;5034744;28;20048;-61
2022/05/13 14:20:43;;;;;;;7.13;1.60;;;;;;;;;;5034876;28;20037;-61
2022/05/13 14:23:10;;;;;;;7.50;1.70;;;;;;;;;;5034948;28;20381;-61
2022/05/13 14:25:49;;;;;;;5.70;1.90;;;;;;;;;;5034937;28;20453;-61
2022/05/13 14:28:16;;;;;;;5.70;1.60;;;;;;;;;;5035112;28;20508;-62
2022/05/13 14:30:46;;;;;;;5.50;1.60;;;;;;;;;;5034193;28;20540;-61
2022/05/13 14:33:12;;;;;;;5.63;2.00;;;;;;;;;;5034994;28;20087;-61
2022/05/13 14:35:38;;;;;;;7.90;1.57;;;;;;;;;;5035018;28;20653;-61
2022/05/13 14:38:06;;;;;;;5.47;1.77;;;;;;;;;;5035510;28;20049;-61
2022/05/13 14:40:43;;;;;;;9.07;2.00;;;;;;;;;;5035631;28;20045;-61
2022/05/13 14:43:14;;;;;;;8.10;1.93;;;;;;;;;;5035165;28;20056;-61
2022/05/13 14:45:41;;;;;;;5.37;2.10;;;;;;;;;;5034824;28;20037;-61
2022/05/13 14:48:13;;;;;;;6.77;1.60;;;;;;;;;;5035245;28;20041;-61
2022/05/13 14:50:40;;;;;;;6.00;1.70;;;;;;;;;;5043982;28;20044;-61
2022/05/13 14:53:11;;;;;;;7.17;1.70;;;;;;;;;;5052357;28;20450;-61
2022/05/13 14:55:42;;;;;;;7.30;1.90;;;;;;;;;;5035350;28;20047;-61
2022/05/13 14:58:34;;;;;;;5.80;2.07;;;;;;;;;;5035569;28;20064;-61
2022/05/13 15:01:08;;;;;;;5.53;1.40;;;;;;;;;;5026265;28;20049;-61
2022/05/13 15:03:38;;;;;;;4.80;1.60;;;;;;;;;;5042601;28;20059;-61
2022/05/13 15:06:22;;;;;;;8.00;1.80;;;;;;;;;;5039620;28;20622;-61
2022/05/13 15:08:52;;;;;;;6.00;1.50;;;;;;;;;;5035368;28;20095;-61
2022/05/13 15:11:21;;;;;;;4.93;1.50;;;;;;;;;;5036477;28;20056;-61
2022/05/13 15:13:47;;;;;;;6.50;1.87;;;;;;;;;;5047334;28;20068;-62
2022/05/13 15:16:15;;;;;;;7.63;2.10;;;;;;;;;;5044647;28;20044;-62
2022/05/13 15:18:41;;;;;;;8.97;1.70;;;;;;;;;;5042715;28;20086;-62
2022/05/13 15:21:08;;;;;;;7.80;1.77;;;;;;;;;;5045087;28;20140;-62
2022/05/13 15:23:34;;;;;;;5.80;1.80;;;;;;;;;;5044988;28;20048;-62